createdAt,value
2018-09-28T00:02:29.368Z,65.60
2018-09-28T00:04:59.743Z,65.53
2018-09-28T00:07:29.984Z,65.92
2018-09-28T00:10:00.110Z,65.74
2018-09-28T00:12:30.068Z,66.28
2018-09-28T00:15:00.921Z,66.84
2018-09-28T00:17:31.268Z,66.79
2018-09-28T00:20:01.493Z,66.95
2018-09-28T00:22:31.612Z,67.02
2018-09-28T00:25:02.047Z,66.69
2018-09-28T00:27:32.245Z,65.94
2018-09-28T00:30:02.576Z,66.01
2018-09-28T00:32:32.722Z,66.28
2018-09-28T00:35:03.277Z,66.54
2018-09-28T00:37:33.804Z,66.24
2018-09-28T00:40:04.652Z,66.30
2018-09-28T00:42:35.182Z,66.68
2018-09-28T00:45:06.717Z,66.50
2018-09-28T00:47:36.876Z,67.00
2018-09-28T00:50:07.418Z,67.33
2018-09-28T00:52:37.648Z,67.49
2018-09-28T00:55:07.662Z,67.57
2018-09-28T00:57:38.761Z,67.94
2018-09-28T01:00:09.085Z,67.44
2018-09-28T01:02:39.517Z,67.85
2018-09-28T01:05:10.376Z,68.36
2018-09-28T01:07:40.573Z,68.40
2018-09-28T01:10:10.940Z,68.30
2018-09-28T01:12:40.862Z,68.46
2018-09-28T01:15:11.679Z,68.77
2018-09-28T01:17:41.630Z,69.08
2018-09-28T01:20:12.939Z,68.88
2018-09-28T01:22:43.879Z,69.92
2018-09-28T01:25:14.175Z,69.38
2018-09-28T01:27:44.671Z,69.31
2018-09-28T01:30:15.267Z,69.21
2018-09-28T01:32:45.429Z,68.80
2018-09-28T01:35:18.389Z,68.83
2018-09-28T01:37:48.654Z,68.81
2018-09-28T01:40:18.939Z,68.59
2018-09-28T01:42:49.263Z,68.42
2018-09-28T01:45:19.628Z,68.88
2018-09-28T01:47:50.158Z,67.84
2018-09-28T01:50:20.698Z,67.48
2018-09-28T01:52:50.738Z,67.28
2018-09-28T01:55:20.838Z,66.37
2018-09-28T01:57:52.134Z,65.70
2018-09-28T02:00:22.373Z,65.09
2018-09-28T02:02:52.670Z,64.83
2018-09-28T02:05:22.837Z,64.76
2018-09-28T02:07:52.734Z,63.91
2018-09-28T02:10:22.663Z,63.62
2018-09-28T02:12:53.381Z,62.16
2018-09-28T02:15:23.834Z,61.82
2018-09-28T02:17:54.285Z,60.65
2018-09-28T02:20:24.491Z,60.49
2018-09-28T02:22:55.534Z,60.28
2018-09-28T02:25:25.698Z,60.76
2018-09-28T02:27:55.937Z,59.52
2018-09-28T02:30:26.252Z,58.99
2018-09-28T02:32:57.500Z,57.83
2018-09-28T02:35:27.575Z,57.02
2018-09-28T02:37:57.695Z,56.49
2018-09-28T02:40:27.667Z,56.48
2018-09-28T02:42:57.437Z,55.36
2018-09-28T02:45:28.328Z,54.54
2018-09-28T02:47:58.665Z,54.47
2018-09-28T02:50:28.990Z,55.55
2018-09-28T02:52:59.349Z,53.98
2018-09-28T02:55:31.044Z,53.58
2018-09-28T02:58:04.202Z,54.79
2018-09-28T03:00:34.865Z,55.56
2018-09-28T03:04:35.055Z,55.38
2018-09-28T03:07:05.101Z,56.89
2018-09-28T03:09:35.223Z,58.08
2018-09-28T03:12:06.178Z,58.66
2018-09-28T03:14:36.259Z,59.65
2018-09-28T03:17:07.571Z,59.43
2018-09-28T03:19:37.638Z,59.30
2018-09-28T03:22:08.053Z,59.68
2018-09-28T03:24:38.185Z,59.66
2018-09-28T03:27:08.743Z,59.42
2018-09-28T03:29:39.044Z,58.96
2018-09-28T03:32:09.493Z,57.87
2018-09-28T03:34:39.503Z,57.63
2018-09-28T03:37:09.664Z,57.82
2018-09-28T03:39:40.612Z,57.41
2018-09-28T03:42:12.128Z,56.95
2018-09-28T03:44:42.314Z,56.46
2018-09-28T03:47:13.129Z,55.13
2018-09-28T03:49:43.048Z,54.22
2018-09-28T03:52:13.014Z,54.27
2018-09-28T03:54:43.833Z,53.25
2018-09-28T03:57:14.244Z,53.29
2018-09-28T03:59:45.361Z,53.06
2018-09-28T04:02:16.982Z,52.39
2018-09-28T04:04:47.446Z,52.01
2018-09-28T04:07:18.541Z,51.80
2018-09-28T04:09:49.651Z,51.73
2018-09-28T04:12:23.726Z,52.03
2018-09-28T04:14:54.141Z,51.69
2018-09-28T04:17:25.136Z,51.26
2018-09-28T04:19:55.485Z,51.08
2018-09-28T04:22:25.886Z,50.67
2018-09-28T04:24:56.305Z,50.96
2018-09-28T04:27:26.815Z,50.80
2018-09-28T04:29:56.869Z,50.03
2018-09-28T04:32:28.046Z,49.52
2018-09-28T04:34:58.124Z,49.14
2018-09-28T04:37:29.290Z,48.50
2018-09-28T04:39:59.419Z,48.24
2018-09-28T04:42:31.466Z,47.66
2018-09-28T04:45:01.763Z,47.10
2018-09-28T04:47:32.934Z,47.18
2018-09-28T04:50:03.213Z,46.89
2018-09-28T04:52:34.558Z,46.93
2018-09-28T04:55:04.739Z,46.03
2018-09-28T04:57:34.990Z,43.98
2018-09-28T05:00:06.063Z,42.54
2018-09-28T05:02:37.337Z,42.21
2018-09-28T05:05:09.820Z,42.71
2018-09-28T05:07:40.096Z,43.42
2018-09-28T05:10:10.043Z,42.94
2018-09-28T05:12:39.998Z,43.31
2018-09-28T05:15:10.380Z,42.27
2018-09-28T05:17:40.802Z,42.26
2018-09-28T05:20:10.710Z,42.51
2018-09-28T05:22:41.378Z,41.80
2018-09-28T05:25:12.664Z,41.42
2018-09-28T05:27:42.922Z,41.29
2018-09-28T05:30:13.822Z,40.19
2018-09-28T05:32:44.259Z,38.96
2018-09-28T05:35:14.346Z,38.78
2018-09-28T05:37:45.118Z,37.79
2018-09-28T05:40:15.237Z,36.31
2018-09-28T05:42:45.291Z,34.29
2018-09-28T05:45:18.021Z,34.44
2018-09-28T05:47:48.288Z,33.54
2018-09-28T05:50:18.521Z,31.63
2018-09-28T05:52:49.521Z,31.74
2018-09-28T05:55:19.966Z,30.46
2018-09-28T05:57:52.255Z,28.22
2018-09-28T06:00:27.152Z,25.65
2018-09-28T06:03:02.160Z,23.56
2018-09-28T06:05:34.326Z,23.89
2018-09-28T06:08:04.455Z,23.36
2018-09-28T06:10:34.847Z,21.88
2018-09-28T06:13:05.004Z,21.52
2018-09-28T06:15:35.384Z,20.43
2018-09-28T06:18:05.573Z,20.36
2018-09-28T06:20:35.854Z,20.07
2018-09-28T06:23:06.397Z,19.91
2018-09-28T06:25:36.410Z,18.15
2018-09-28T06:28:10.520Z,18.69
2018-09-28T06:30:40.680Z,19.12
2018-09-28T06:33:11.423Z,18.19
2018-09-28T06:35:41.746Z,23.79
2018-09-28T06:38:12.011Z,25.21
2018-09-28T06:40:42.023Z,27.58
2018-09-28T06:43:13.127Z,29.93
2018-09-28T06:45:43.194Z,32.27
2018-09-28T06:48:13.804Z,31.72
2018-09-28T06:50:44.113Z,34.35
2018-09-28T06:53:14.627Z,36.50
2018-09-28T06:55:44.786Z,36.85
2018-09-28T06:58:17.391Z,37.58
2018-09-28T07:00:47.678Z,38.48
2018-09-28T07:03:18.604Z,37.89
2018-09-28T07:05:48.860Z,36.43
2018-09-28T07:08:20.828Z,37.13
2018-09-28T07:10:52.657Z,36.15
2018-09-28T07:13:26.329Z,34.11
2018-09-28T07:15:56.692Z,33.78
2018-09-28T07:18:26.878Z,33.06
2018-09-28T07:20:56.992Z,33.52
2018-09-28T07:23:27.136Z,33.80
2018-09-28T07:25:58.352Z,34.40
2018-09-28T07:28:29.351Z,33.77
2018-09-28T07:30:59.664Z,34.76
2018-09-28T07:33:30.055Z,34.88
2018-09-28T07:36:00.405Z,35.35
2018-09-28T07:38:31.434Z,41.67
2018-09-28T07:41:01.516Z,40.68
2018-09-28T07:43:33.393Z,40.81
2018-09-28T07:46:03.917Z,40.38
2018-09-28T07:48:39.283Z,40.34
2018-09-28T07:51:10.190Z,40.01
2018-09-28T07:53:40.576Z,38.38
2018-09-28T07:56:10.699Z,38.61
2018-09-28T07:58:40.913Z,39.21
2018-09-28T08:01:11.222Z,39.37
2018-09-28T08:03:41.562Z,39.92
2018-09-28T08:06:11.823Z,39.44
2018-09-28T08:08:43.329Z,40.06
2018-09-28T08:11:13.361Z,39.91
2018-09-28T08:13:43.620Z,39.86
2018-09-28T08:16:13.711Z,41.81
2018-09-28T08:18:43.909Z,41.58
2018-09-28T08:21:14.910Z,41.15
2018-09-28T08:23:45.286Z,41.78
2018-09-28T08:26:15.540Z,40.90
2018-09-28T08:28:45.650Z,42.04
2018-09-28T08:31:16.355Z,42.65
2018-09-28T08:33:46.524Z,42.62
2018-09-28T08:36:16.672Z,40.43
2018-09-28T08:38:46.866Z,40.64
2018-09-28T08:41:17.051Z,41.27
2018-09-28T08:43:48.498Z,40.84
2018-09-28T08:46:19.081Z,39.57
2018-09-28T08:48:49.728Z,40.83
2018-09-28T08:51:20.178Z,41.03
2018-09-28T08:53:53.889Z,41.31
2018-09-28T08:56:25.322Z,42.13
2018-09-28T08:58:55.435Z,40.20
2018-09-28T09:01:25.717Z,39.32
2018-09-28T09:03:55.812Z,40.64
2018-09-28T09:06:25.976Z,39.98
2018-09-28T09:08:57.411Z,40.01
2018-09-28T09:11:27.749Z,40.32
2018-09-28T09:13:58.030Z,40.82
2018-09-28T09:16:28.309Z,42.18
2018-09-28T09:18:58.582Z,41.63
2018-09-28T09:21:28.691Z,41.13
2018-09-28T09:23:58.875Z,41.29
2018-09-28T09:26:30.405Z,41.63
2018-09-28T09:29:00.548Z,43.08
2018-09-28T09:31:30.931Z,41.79
2018-09-28T09:34:01.170Z,42.30
2018-09-28T09:36:31.772Z,41.56
2018-09-28T09:39:02.067Z,42.03
2018-09-28T09:41:32.347Z,39.14
2018-09-28T09:44:03.617Z,39.83
2018-09-28T09:46:33.929Z,40.22
2018-09-28T09:49:04.366Z,41.35
2018-09-28T09:51:34.409Z,41.98
2018-09-28T09:54:04.641Z,42.44
2018-09-28T09:56:34.822Z,42.61
2018-09-28T09:59:04.997Z,41.92
2018-09-28T10:01:39.853Z,42.22
2018-09-28T10:04:10.950Z,42.43
2018-09-28T10:06:40.930Z,40.57
2018-09-28T10:09:13.494Z,40.55
2018-09-28T10:11:43.722Z,40.80
2018-09-28T10:14:14.041Z,41.78
2018-09-28T10:16:44.193Z,42.09
2018-09-28T10:19:14.238Z,42.92
2018-09-28T10:21:44.531Z,42.18
2018-09-28T10:24:15.151Z,43.21
2018-09-28T10:26:45.071Z,42.34
2018-09-28T10:29:15.271Z,41.50
2018-09-28T10:31:46.027Z,40.86
2018-09-28T10:34:16.840Z,41.64
2018-09-28T10:36:46.903Z,39.95
2018-09-28T10:39:17.933Z,39.79
2018-09-28T10:41:48.134Z,39.75
2018-09-28T10:44:18.362Z,43.34
2018-09-28T10:46:48.592Z,44.27
2018-09-28T10:49:18.581Z,41.99
2018-09-28T10:51:48.944Z,41.70
2018-09-28T10:54:19.568Z,41.60
2018-09-28T10:56:49.834Z,41.29
2018-09-28T10:59:20.129Z,41.91
2018-09-28T11:01:57.046Z,41.60
2018-09-28T11:04:27.392Z,42.05
2018-09-28T11:06:57.943Z,41.62
2018-09-28T11:09:28.229Z,43.09
2018-09-28T11:11:58.388Z,44.63
2018-09-28T11:14:28.310Z,44.71
2018-09-28T11:16:58.501Z,44.97
2018-09-28T11:19:28.644Z,45.28
2018-09-28T11:21:58.903Z,44.90
2018-09-28T11:24:29.302Z,44.52
2018-09-28T11:26:59.639Z,42.71
2018-09-28T11:29:29.866Z,43.00
2018-09-28T11:31:59.833Z,44.62
2018-09-28T11:34:30.320Z,43.85
2018-09-28T11:37:00.604Z,44.54
2018-09-28T11:39:31.064Z,43.30
2018-09-28T11:42:01.203Z,42.40
2018-09-28T11:44:32.826Z,42.95
2018-09-28T11:47:03.114Z,43.01
2018-09-28T11:49:33.351Z,43.96
2018-09-28T11:52:03.520Z,44.25
2018-09-28T11:54:34.024Z,43.99
2018-09-28T11:57:04.166Z,46.41
2018-09-28T11:59:34.585Z,46.17
2018-09-28T12:02:08.700Z,44.94
2018-09-28T12:04:38.701Z,46.88
2018-09-28T12:07:09.172Z,46.48
2018-09-28T12:09:39.143Z,44.60
2018-09-28T12:12:10.054Z,45.70
2018-09-28T12:14:40.666Z,45.71
2018-09-28T12:17:10.824Z,47.66
2018-09-28T12:19:41.078Z,48.34
2018-09-28T12:22:11.291Z,48.86
2018-09-28T12:24:41.360Z,48.22
2018-09-28T12:27:11.549Z,48.02
2018-09-28T12:29:42.781Z,47.41
2018-09-28T12:32:13.255Z,46.24
2018-09-28T12:34:43.631Z,47.32
2018-09-28T12:37:13.743Z,46.29
2018-09-28T12:39:44.091Z,46.98
2018-09-28T12:42:15.482Z,45.72
2018-09-28T12:44:46.474Z,44.27
2018-09-28T12:47:16.807Z,45.68
2018-09-28T12:49:47.291Z,46.55
2018-09-28T12:52:17.492Z,47.29
2018-09-28T12:54:48.028Z,45.56
2018-09-28T12:57:18.336Z,44.82
2018-09-28T12:59:48.436Z,44.05
2018-09-28T13:02:19.393Z,45.43
2018-09-28T13:04:50.160Z,47.83
2018-09-28T13:07:22.139Z,47.19
2018-09-28T13:09:52.260Z,47.18
2018-09-28T13:12:22.697Z,46.95
2018-09-28T13:14:54.333Z,47.29
2018-09-28T13:17:24.402Z,48.06
2018-09-28T13:19:54.633Z,48.90
2018-09-28T13:22:24.867Z,48.75
2018-09-28T13:24:55.832Z,46.82
2018-09-28T13:27:25.884Z,48.27
2018-09-28T13:29:56.335Z,48.58
2018-09-28T13:32:26.767Z,50.66
2018-09-28T13:34:58.044Z,49.85
2018-09-28T13:37:28.224Z,49.25
2018-09-28T13:39:58.401Z,49.21
2018-09-28T13:42:29.470Z,50.11
2018-09-28T13:45:01.577Z,50.54
2018-09-28T13:47:32.962Z,51.03
2018-09-28T13:50:03.060Z,51.05
2018-09-28T13:52:33.304Z,50.63
2018-09-28T13:55:04.705Z,49.89
2018-09-28T13:57:34.858Z,49.81
2018-09-28T14:00:06.300Z,49.80
2018-09-28T14:02:38.066Z,50.54
2018-09-28T14:05:08.372Z,50.53
2018-09-28T14:07:39.390Z,50.11
2018-09-28T14:10:10.091Z,50.18
2018-09-28T14:12:40.400Z,50.45
2018-09-28T14:15:11.527Z,51.00
2018-09-28T14:17:41.771Z,50.93
2018-09-28T14:20:12.110Z,50.66
2018-09-28T14:22:42.388Z,52.13
2018-09-28T14:25:12.521Z,51.57
2018-09-28T14:27:44.217Z,51.47
2018-09-28T14:30:14.630Z,50.81
2018-09-28T14:32:45.056Z,52.05
2018-09-28T14:35:15.462Z,53.06
2018-09-28T14:37:45.800Z,52.42
2018-09-28T14:40:15.787Z,52.17
2018-09-28T14:42:46.101Z,51.91
2018-09-28T14:45:17.313Z,52.43
2018-09-28T14:47:47.539Z,52.41
2018-09-28T14:50:17.982Z,52.96
2018-09-28T14:52:48.221Z,52.87
2018-09-28T14:55:20.725Z,53.58
2018-09-28T14:57:50.918Z,54.62
2018-09-28T15:00:22.201Z,54.90
2018-09-28T15:02:52.242Z,55.49
2018-09-28T15:05:22.539Z,55.66
2018-09-28T15:07:53.441Z,56.26
2018-09-28T15:10:26.855Z,57.07
2018-09-28T15:12:57.302Z,58.49
2018-09-28T15:15:28.423Z,57.76
2018-09-28T15:17:59.503Z,58.78
2018-09-28T15:20:29.713Z,59.80
2018-09-28T15:22:59.738Z,61.61
2018-09-28T15:25:30.845Z,61.46
2018-09-28T15:28:01.223Z,62.32
2018-09-28T15:30:31.388Z,63.00
2018-09-28T15:33:01.286Z,63.55
2018-09-28T15:35:32.319Z,63.61
2018-09-28T15:38:02.547Z,64.01
2018-09-28T15:40:34.352Z,64.27
2018-09-28T15:43:04.588Z,64.96
2018-09-28T15:45:38.876Z,66.01
2018-09-28T15:48:09.460Z,66.66
2018-09-28T15:50:39.766Z,66.44
2018-09-28T15:53:10.547Z,66.32
2018-09-28T15:55:40.877Z,66.46
2018-09-28T15:58:11.231Z,66.60
2018-09-28T16:00:41.580Z,67.16
2018-09-28T16:03:12.214Z,67.77
2018-09-28T16:05:43.257Z,67.54
2018-09-28T16:08:13.736Z,66.97
2018-09-28T16:10:46.063Z,67.04
2018-09-28T16:13:16.265Z,67.56
2018-09-28T16:15:46.428Z,68.91
2018-09-28T16:18:17.549Z,69.12
2018-09-28T16:20:47.806Z,70.07
2018-09-28T16:23:19.127Z,69.89
2018-09-28T16:25:49.633Z,70.65
2018-09-28T16:28:20.550Z,70.81
2018-09-28T16:30:51.048Z,71.75
2018-09-28T16:33:24.113Z,72.56
2018-09-28T16:35:54.384Z,72.37
2018-09-28T16:38:24.719Z,72.56
2018-09-28T16:40:55.490Z,73.08
2018-09-28T16:43:25.683Z,73.42
2018-09-28T16:45:57.826Z,73.70
2018-09-28T16:48:27.744Z,73.80
2018-09-28T16:50:59.943Z,73.87
2018-09-28T16:53:31.092Z,74.35
2018-09-28T16:56:01.092Z,73.42
2018-09-28T16:58:30.930Z,73.44
2018-09-28T17:01:01.017Z,73.59
2018-09-28T17:03:31.283Z,73.34
2018-09-28T17:06:02.315Z,73.84
2018-09-28T17:08:33.725Z,74.48
2018-09-28T17:11:03.945Z,74.47
2018-09-28T17:13:35.261Z,74.43
2018-09-28T17:16:07.726Z,75.18
2018-09-28T17:18:37.546Z,74.54
2018-09-28T17:21:08.210Z,75.27
2018-09-28T17:23:38.924Z,75.23
2018-09-28T17:26:08.961Z,75.85
2018-09-28T17:28:40.015Z,75.53
2018-09-28T17:31:10.159Z,75.45
2018-09-28T17:33:40.305Z,75.06
2018-09-28T17:36:10.307Z,75.87
2018-09-28T17:38:41.068Z,76.85
2018-09-28T17:41:12.237Z,77.09
2018-09-28T17:43:46.011Z,76.93
2018-09-28T17:46:22.298Z,77.03
2018-09-28T17:48:52.735Z,76.57
2018-09-28T17:51:22.595Z,76.81
2018-09-28T17:53:52.507Z,77.43
2018-09-28T17:56:23.791Z,77.99
2018-09-28T17:58:54.087Z,77.97
2018-09-28T18:01:24.643Z,78.49
2018-09-28T18:03:55.981Z,79.42
2018-09-28T18:06:28.505Z,79.84
2018-09-28T18:08:59.181Z,79.29
2018-09-28T18:11:33.465Z,79.98
2018-09-28T18:14:03.594Z,80.06
2018-09-28T18:16:33.994Z,80.54
2018-09-28T18:19:04.154Z,80.99
2018-09-28T18:21:34.798Z,81.42
2018-09-28T18:24:05.119Z,81.21
2018-09-28T18:26:35.638Z,80.87
2018-09-28T18:29:06.440Z,81.42
2018-09-28T18:31:37.219Z,81.58
2018-09-28T18:34:08.340Z,81.44
2018-09-28T18:36:38.716Z,81.65
2018-09-28T18:39:10.499Z,82.01
2018-09-28T18:41:41.501Z,81.57
2018-09-28T18:44:11.811Z,81.75
2018-09-28T18:46:44.891Z,81.52
2018-09-28T18:49:16.508Z,81.69
2018-09-28T18:51:47.282Z,81.78
2018-09-28T18:54:17.723Z,82.40
2018-09-28T18:56:48.466Z,82.48
2018-09-28T18:59:18.803Z,82.88
2018-09-28T19:01:49.226Z,83.55
2018-09-28T19:04:20.604Z,83.75
2018-09-28T19:06:51.661Z,84.30
2018-09-28T19:09:22.160Z,84.32
2018-09-28T19:11:53.524Z,85.15
2018-09-28T19:14:23.813Z,85.80
2018-09-28T19:16:54.161Z,85.93
2018-09-28T19:19:25.488Z,85.68
2018-09-28T19:21:57.487Z,86.36
2018-09-28T19:24:27.904Z,86.61
2018-09-28T19:26:58.331Z,87.38
2018-09-28T19:29:28.480Z,87.22
2018-09-28T19:31:58.829Z,87.13
2018-09-28T19:34:30.503Z,88.15
2018-09-28T19:37:00.705Z,88.63
2018-09-28T19:39:32.326Z,89.02
2018-09-28T19:42:02.655Z,88.40
2018-09-28T19:44:32.908Z,88.90
2018-09-28T19:47:03.142Z,89.92
2018-09-28T19:49:34.305Z,89.45
2018-09-28T19:52:04.519Z,90.34
2018-09-28T19:54:34.644Z,90.25
2018-09-28T19:57:05.164Z,91.20
2018-09-28T19:59:35.383Z,92.01
2018-09-28T20:02:07.249Z,93.06
2018-09-28T20:04:37.759Z,93.46
2018-09-28T20:07:08.757Z,91.78
2018-09-28T20:09:39.020Z,92.32
2018-09-28T20:12:09.554Z,92.35
2018-09-28T20:14:39.860Z,91.81
2018-09-28T20:17:11.108Z,92.41
2018-09-28T20:19:41.582Z,92.17
2018-09-28T20:22:13.629Z,93.42
2018-09-28T20:24:43.903Z,93.26
2018-09-28T20:27:15.650Z,93.47
2018-09-28T20:29:46.646Z,93.91
2018-09-28T20:32:17.122Z,94.00
2018-09-28T20:34:47.580Z,93.67
2018-09-28T20:37:17.799Z,93.22
2018-09-28T20:39:48.303Z,93.00
2018-09-28T20:42:20.021Z,92.64
2018-09-28T20:44:49.796Z,92.20
2018-09-28T20:47:19.535Z,92.08
2018-09-28T20:49:49.320Z,92.49
2018-09-28T20:52:19.312Z,92.91
2018-09-28T20:54:50.001Z,93.55
2018-09-28T20:57:20.224Z,93.46
2018-09-28T20:59:50.510Z,93.30
2018-09-28T21:02:20.677Z,93.64
2018-09-28T21:04:51.917Z,93.78
2018-09-28T21:07:23.295Z,92.77
2018-09-28T21:09:53.877Z,92.73
2018-09-28T21:12:24.233Z,92.92
2018-09-28T21:14:54.520Z,93.25
2018-09-28T21:17:24.789Z,93.69
2018-09-28T21:19:55.114Z,93.90
2018-09-28T21:22:25.334Z,93.75
2018-09-28T21:24:55.574Z,94.22
2018-09-28T21:27:26.446Z,94.83
2018-09-28T21:29:56.252Z,93.94
2018-09-28T21:32:25.965Z,93.84
2018-09-28T21:34:56.281Z,93.68
2018-09-28T21:37:26.378Z,94.15
2018-09-28T21:39:56.529Z,94.26
2018-09-28T21:42:26.961Z,94.38
2018-09-28T21:44:56.966Z,94.12
2018-09-28T21:47:27.238Z,94.31
2018-09-28T21:49:56.974Z,94.19
2018-09-28T21:52:26.621Z,94.51
2018-09-28T21:54:56.509Z,94.60
2018-09-28T21:57:26.460Z,94.15
2018-09-28T21:59:56.158Z,94.02
2018-09-28T22:02:26.342Z,94.50
2018-09-28T22:04:58.367Z,94.61
2018-09-28T22:07:28.971Z,94.25
2018-09-28T22:09:59.308Z,94.47
2018-09-28T22:12:29.554Z,94.55
2018-09-28T22:14:59.687Z,94.69
2018-09-28T22:17:30.043Z,94.06
2018-09-28T22:20:01.073Z,93.96
2018-09-28T22:22:31.087Z,94.06
2018-09-28T22:25:02.031Z,94.19
2018-09-28T22:27:32.017Z,93.79
2018-09-28T22:30:02.210Z,93.94
2018-09-28T22:32:32.318Z,93.42
2018-09-28T22:35:02.727Z,93.69
2018-09-28T22:37:32.781Z,93.35
2018-09-28T22:40:02.941Z,93.37
2018-09-28T22:42:34.129Z,93.25
2018-09-28T22:45:04.450Z,93.05
2018-09-28T22:47:34.527Z,93.09
2018-09-28T22:50:05.024Z,93.70
2018-09-28T22:52:35.290Z,94.15
2018-09-28T22:55:05.505Z,93.47
2018-09-28T22:57:36.818Z,93.73
2018-09-28T23:00:07.137Z,93.37
2018-09-28T23:02:37.483Z,94.25
2018-09-28T23:05:08.417Z,94.01
2018-09-28T23:07:38.679Z,93.43
2018-09-28T23:10:09.505Z,93.48
2018-09-28T23:12:39.686Z,93.02
2018-09-28T23:15:11.184Z,93.90
2018-09-28T23:31:23.617Z,95.78
2018-09-28T23:33:53.822Z,95.86
2018-09-28T23:36:24.036Z,96.06
2018-09-28T23:38:53.968Z,96.46
2018-09-28T23:41:24.451Z,96.17
2018-09-28T23:43:55.418Z,96.11
2018-09-28T23:46:26.356Z,96.55
2018-09-28T23:48:56.604Z,96.44
2018-09-28T23:51:26.809Z,96.71
2018-09-28T23:54:00.970Z,96.43
2018-09-28T23:56:32.023Z,96.63
2018-09-28T23:59:02.475Z,96.74
